sensor_id;sensor_type;location;lat;lon;timestamp;pressure;altitude;pressure_sealevel;temperature;humidity
51313;BME280;37397;53.226;10.400;2022-07-24T00:02:13;101622.47;;;18.10;49.85
51313;BME280;37397;53.226;10.400;2022-07-24T00:04:39;101630.56;;;18.06;50.09
51313;BME280;37397;53.226;10.400;2022-07-24T00:07:06;101621.06;;;18.00;50.29
51313;BME280;37397;53.226;10.400;2022-07-24T00:09:33;101631.06;;;17.99;50.26
51313;BME280;37397;53.226;10.400;2022-07-24T00:11:59;101621.28;;;17.91;50.44
51313;BME280;37397;53.226;10.400;2022-07-24T00:14:26;101606.56;;;17.89;50.69
51313;BME280;37397;53.226;10.400;2022-07-24T00:16:53;101615.72;;;17.87;50.74
51313;BME280;37397;53.226;10.400;2022-07-24T00:19:19;101610.16;;;17.83;50.63
51313;BME280;37397;53.226;10.400;2022-07-24T00:21:46;101605.16;;;17.78;50.51
51313;BME280;37397;53.226;10.400;2022-07-24T00:24:13;101604.88;;;17.76;50.44
51313;BME280;37397;53.226;10.400;2022-07-24T00:26:40;101596.69;;;17.69;50.35
51313;BME280;37397;53.226;10.400;2022-07-24T00:29:07;101609.03;;;17.70;50.66
51313;BME280;37397;53.226;10.400;2022-07-24T00:31:34;101612.13;;;17.66;50.58
51313;BME280;37397;53.226;10.400;2022-07-24T00:34:00;101611.84;;;17.58;50.32
51313;BME280;37397;53.226;10.400;2022-07-24T00:36:27;101610.25;;;17.57;50.49
51313;BME280;37397;53.226;10.400;2022-07-24T00:38:53;101600.22;;;17.53;50.59
51313;BME280;37397;53.226;10.400;2022-07-24T00:41:20;101595.22;;;17.47;50.61
51313;BME280;37397;53.226;10.400;2022-07-24T00:44:10;101596.22;;;17.44;50.47
51313;BME280;37397;53.226;10.400;2022-07-24T00:46:39;101588.31;;;17.39;50.68
51313;BME280;37397;53.226;10.400;2022-07-24T00:49:09;101592.72;;;17.35;50.95
51313;BME280;37397;53.226;10.400;2022-07-24T00:51:46;101594.53;;;17.32;51.00
51313;BME280;37397;53.226;10.400;2022-07-24T00:54:14;101598.16;;;17.27;51.07
51313;BME280;37397;53.226;10.400;2022-07-24T00:56:43;101592.88;;;17.20;51.01
51313;BME280;37397;53.226;10.400;2022-07-24T00:59:11;101587.81;;;17.14;51.15
51313;BME280;37397;53.226;10.400;2022-07-24T01:01:37;101593.31;;;17.12;51.33
51313;BME280;37397;53.226;10.400;2022-07-24T01:04:04;101609.84;;;17.12;51.23
51313;BME280;37397;53.226;10.400;2022-07-24T01:06:31;101607.69;;;17.07;51.36
51313;BME280;37397;53.226;10.400;2022-07-24T01:08:58;101604.72;;;17.01;51.09
51313;BME280;37397;53.226;10.400;2022-07-24T01:11:25;101604.47;;;16.99;51.34
51313;BME280;37397;53.226;10.400;2022-07-24T01:13:52;101599.44;;;16.94;51.29
51313;BME280;37397;53.226;10.400;2022-07-24T01:16:18;101599.13;;;16.92;51.57
51313;BME280;37397;53.226;10.400;2022-07-24T01:18:45;101606.44;;;16.87;51.48
51313;BME280;37397;53.226;10.400;2022-07-24T01:21:11;101600.56;;;16.82;51.60
51313;BME280;37397;53.226;10.400;2022-07-24T01:23:38;101599.78;;;16.81;51.57
51313;BME280;37397;53.226;10.400;2022-07-24T01:26:07;101585.78;;;16.74;51.83
51313;BME280;37397;53.226;10.400;2022-07-24T01:28:35;101587.91;;;16.73;51.85
51313;BME280;37397;53.226;10.400;2022-07-24T01:31:02;101583.66;;;16.69;51.90
51313;BME280;37397;53.226;10.400;2022-07-24T01:33:29;101583.38;;;16.67;52.14
51313;BME280;37397;53.226;10.400;2022-07-24T01:35:55;101589.06;;;16.61;51.96
51313;BME280;37397;53.226;10.400;2022-07-24T01:38:22;101581.13;;;16.56;52.06
51313;BME280;37397;53.226;10.400;2022-07-24T01:40:49;101592.38;;;16.54;52.04
51313;BME280;37397;53.226;10.400;2022-07-24T01:43:15;101583.16;;;16.50;52.07
51313;BME280;37397;53.226;10.400;2022-07-24T01:45:42;101591.53;;;16.48;52.22
51313;BME280;37397;53.226;10.400;2022-07-24T01:48:08;101592.53;;;16.45;52.28
51313;BME280;37397;53.226;10.400;2022-07-24T01:50:35;101593.25;;;16.39;52.36
51313;BME280;37397;53.226;10.400;2022-07-24T01:53:02;101593.25;;;16.39;52.37
51313;BME280;37397;53.226;10.400;2022-07-24T01:55:29;101594.25;;;16.36;52.42
51313;BME280;37397;53.226;10.400;2022-07-24T01:57:56;101595.25;;;16.33;52.58
51313;BME280;37397;53.226;10.400;2022-07-24T02:00:23;101589.63;;;16.24;52.61
51313;BME280;37397;53.226;10.400;2022-07-24T02:02:50;101603.53;;;16.26;52.66
51313;BME280;37397;53.226;10.400;2022-07-24T02:05:17;101593.53;;;16.21;52.73
51313;BME280;37397;53.226;10.400;2022-07-24T02:07:57;101603.97;;;16.18;52.67
51313;BME280;37397;53.226;10.400;2022-07-24T02:10:28;101602.88;;;16.16;52.75
51313;BME280;37397;53.226;10.400;2022-07-24T02:12:55;101595.75;;;16.11;52.89
51313;BME280;37397;53.226;10.400;2022-07-24T02:15:24;101598.84;;;16.08;53.00
51313;BME280;37397;53.226;10.400;2022-07-24T02:17:55;101605.09;;;16.06;52.93
51313;BME280;37397;53.226;10.400;2022-07-24T02:20:22;101595.09;;;16.01;53.01
51313;BME280;37397;53.226;10.400;2022-07-24T02:22:48;101593.69;;;15.97;53.26
51313;BME280;37397;53.226;10.400;2022-07-24T02:25:15;101588.75;;;15.97;53.21
51313;BME280;37397;53.226;10.400;2022-07-24T02:27:42;101590.75;;;15.91;53.31
51313;BME280;37397;53.226;10.400;2022-07-24T02:30:15;101579.97;;;15.86;53.29
51313;BME280;37397;53.226;10.400;2022-07-24T02:32:43;101588.59;;;15.86;53.46
51313;BME280;37397;53.226;10.400;2022-07-24T02:35:09;101588.28;;;15.84;53.43
51313;BME280;37397;53.226;10.400;2022-07-24T02:37:41;101595.03;;;15.81;53.60
51313;BME280;37397;53.226;10.400;2022-07-24T02:40:08;101593.19;;;15.78;53.76
51313;BME280;37397;53.226;10.400;2022-07-24T02:42:36;101589.56;;;15.68;53.72
51313;BME280;37397;53.226;10.400;2022-07-24T02:45:05;101599.59;;;15.73;53.91
51313;BME280;37397;53.226;10.400;2022-07-24T02:47:32;101591.38;;;15.65;53.91
51313;BME280;37397;53.226;10.400;2022-07-24T02:49:58;101607.06;;;15.64;54.08
51313;BME280;37397;53.226;10.400;2022-07-24T02:52:25;101598.41;;;15.64;54.01
51313;BME280;37397;53.226;10.400;2022-07-24T02:54:51;101597.34;;;15.62;54.16
51313;BME280;37397;53.226;10.400;2022-07-24T02:57:19;101601.94;;;15.54;54.17
51313;BME280;37397;53.226;10.400;2022-07-24T02:59:45;101602.72;;;15.54;54.17
51313;BME280;37397;53.226;10.400;2022-07-24T03:02:16;101598.72;;;15.52;54.20
51313;BME280;37397;53.226;10.400;2022-07-24T03:04:42;101591.59;;;15.47;54.26
51313;BME280;37397;53.226;10.400;2022-07-24T03:07:09;101610.44;;;15.48;54.34
51313;BME280;37397;53.226;10.400;2022-07-24T03:09:36;101613.53;;;15.44;54.34
51313;BME280;37397;53.226;10.400;2022-07-24T03:12:02;101613.25;;;15.42;54.58
51313;BME280;37397;53.226;10.400;2022-07-24T03:14:29;101604.72;;;15.33;54.55
51313;BME280;37397;53.226;10.400;2022-07-24T03:16:55;101607.38;;;15.37;54.65
51313;BME280;37397;53.226;10.400;2022-07-24T03:19:22;101612.03;;;15.34;54.75
51313;BME280;37397;53.226;10.400;2022-07-24T03:21:48;101610.66;;;15.29;54.81
51313;BME280;37397;53.226;10.400;2022-07-24T03:24:15;101605.28;;;15.22;54.82
51313;BME280;37397;53.226;10.400;2022-07-24T03:26:42;101602.72;;;15.24;54.79
51313;BME280;37397;53.226;10.400;2022-07-24T03:29:09;101609.44;;;15.21;55.04
51313;BME280;37397;53.226;10.400;2022-07-24T03:31:35;101602.63;;;15.19;55.23
51313;BME280;37397;53.226;10.400;2022-07-24T03:34:02;101593.38;;;15.14;55.27
51313;BME280;37397;53.226;10.400;2022-07-24T03:36:28;101613.84;;;15.17;55.30
51313;BME280;37397;53.226;10.400;2022-07-24T03:38:55;101602.50;;;15.13;55.36
51313;BME280;37397;53.226;10.400;2022-07-24T03:41:21;101603.00;;;15.11;55.51
51313;BME280;37397;53.226;10.400;2022-07-24T03:43:49;101602.91;;;15.06;55.61
51313;BME280;37397;53.226;10.400;2022-07-24T03:46:16;101604.47;;;15.07;55.79
51313;BME280;37397;53.226;10.400;2022-07-24T03:48:42;101608.94;;;15.08;55.72
51313;BME280;37397;53.226;10.400;2022-07-24T03:51:09;101604.88;;;15.00;55.86
51313;BME280;37397;53.226;10.400;2022-07-24T03:53:35;101613.50;;;15.00;55.99
51313;BME280;37397;53.226;10.400;2022-07-24T03:56:09;101615.41;;;15.03;56.00
51313;BME280;37397;53.226;10.400;2022-07-24T03:58:36;101619.56;;;15.02;56.26
51313;BME280;37397;53.226;10.400;2022-07-24T04:01:06;101622.13;;;15.00;56.39
51313;BME280;37397;53.226;10.400;2022-07-24T04:03:34;101622.13;;;15.00;56.43
51313;BME280;37397;53.226;10.400;2022-07-24T04:06:01;101614.97;;;14.95;56.81
51313;BME280;37397;53.226;10.400;2022-07-24T04:08:28;101609.25;;;14.95;57.11
51313;BME280;37397;53.226;10.400;2022-07-24T04:10:55;101608.44;;;14.94;56.93
51313;BME280;37397;53.226;10.400;2022-07-24T04:13:26;101598.22;;;14.93;57.14
51313;BME280;37397;53.226;10.400;2022-07-24T04:15:53;101606.66;;;14.97;57.56
51313;BME280;37397;53.226;10.400;2022-07-24T04:18:21;101601.09;;;14.93;57.70
51313;BME280;37397;53.226;10.400;2022-07-24T04:20:47;101606.38;;;14.95;57.82
51313;BME280;37397;53.226;10.400;2022-07-24T04:23:14;101602.72;;;14.94;58.33
51313;BME280;37397;53.226;10.400;2022-07-24T04:25:44;101591.91;;;14.89;58.09
51313;BME280;37397;53.226;10.400;2022-07-24T04:28:11;101592.19;;;14.91;57.96
51313;BME280;37397;53.226;10.400;2022-07-24T04:30:37;101599.00;;;14.94;58.23
51313;BME280;37397;53.226;10.400;2022-07-24T04:33:04;101592.47;;;14.93;58.24
51313;BME280;37397;53.226;10.400;2022-07-24T04:35:31;101589.13;;;14.95;58.34
51313;BME280;37397;53.226;10.400;2022-07-24T04:37:57;101584.16;;;14.95;58.65
51313;BME280;37397;53.226;10.400;2022-07-24T04:40:24;101588.34;;;14.94;58.88
51313;BME280;37397;53.226;10.400;2022-07-24T04:42:50;101589.91;;;14.95;58.92
51313;BME280;37397;53.226;10.400;2022-07-24T04:45:17;101592.78;;;14.95;58.99
51313;BME280;37397;53.226;10.400;2022-07-24T04:47:43;101597.75;;;14.95;58.60
51313;BME280;37397;53.226;10.400;2022-07-24T04:50:10;101598.84;;;14.98;58.41
51313;BME280;37397;53.226;10.400;2022-07-24T04:52:40;101595.97;;;14.98;58.98
51313;BME280;37397;53.226;10.400;2022-07-24T04:55:07;101581.28;;;14.95;59.04
51313;BME280;37397;53.226;10.400;2022-07-24T04:57:34;101599.13;;;15.00;59.03
51313;BME280;37397;53.226;10.400;2022-07-24T05:00:01;101587.63;;;15.00;59.05
51313;BME280;37397;53.226;10.400;2022-07-24T05:02:28;101592.19;;;15.06;59.41
51313;BME280;37397;53.226;10.400;2022-07-24T05:04:54;101580.13;;;15.02;59.48
51313;BME280;37397;53.226;10.400;2022-07-24T05:07:21;101597.47;;;15.08;59.40
51313;BME280;37397;53.226;10.400;2022-07-24T05:09:47;101607.69;;;15.09;59.37
51313;BME280;37397;53.226;10.400;2022-07-24T05:12:14;101607.75;;;15.14;59.44
51313;BME280;37397;53.226;10.400;2022-07-24T05:14:40;101601.81;;;15.18;59.58
51313;BME280;37397;53.226;10.400;2022-07-24T05:17:07;101608.47;;;15.24;59.47
51313;BME280;37397;53.226;10.400;2022-07-24T05:19:33;101612.22;;;15.30;59.40
51313;BME280;37397;53.226;10.400;2022-07-24T05:22:00;101604.50;;;15.37;60.00
51313;BME280;37397;53.226;10.400;2022-07-24T05:24:26;101603.81;;;15.42;60.58
51313;BME280;37397;53.226;10.400;2022-07-24T05:26:53;101601.22;;;15.44;60.74
51313;BME280;37397;53.226;10.400;2022-07-24T05:29:19;101607.28;;;15.46;60.21
51313;BME280;37397;53.226;10.400;2022-07-24T05:31:46;101611.63;;;15.56;60.91
51313;BME280;37397;53.226;10.400;2022-07-24T05:34:13;101609.63;;;15.62;61.33
51313;BME280;37397;53.226;10.400;2022-07-24T05:36:40;101618.88;;;15.66;60.87
51313;BME280;37397;53.226;10.400;2022-07-24T05:39:07;101612.09;;;15.69;60.32
51313;BME280;37397;53.226;10.400;2022-07-24T05:41:34;101613.97;;;15.73;60.52
51313;BME280;37397;53.226;10.400;2022-07-24T05:44:00;101611.22;;;15.78;60.12
51313;BME280;37397;53.226;10.400;2022-07-24T05:46:27;101594.03;;;15.84;60.99
51313;BME280;37397;53.226;10.400;2022-07-24T05:48:54;101606.72;;;15.92;60.98
51313;BME280;37397;53.226;10.400;2022-07-24T05:51:20;101597.09;;;15.95;60.87
51313;BME280;37397;53.226;10.400;2022-07-24T05:53:47;101593.53;;;16.00;61.09
51313;BME280;37397;53.226;10.400;2022-07-24T05:56:13;101595.97;;;16.08;61.17
51313;BME280;37397;53.226;10.400;2022-07-24T05:58:40;101594.19;;;16.10;60.44
51313;BME280;37397;53.226;10.400;2022-07-24T06:01:06;101598.44;;;16.15;60.57
51313;BME280;37397;53.226;10.400;2022-07-24T06:03:33;101589.63;;;16.24;61.31
51313;BME280;37397;53.226;10.400;2022-07-24T06:05:59;101594.41;;;16.27;61.45
51313;BME280;37397;53.226;10.400;2022-07-24T06:08:26;101589.72;;;16.30;61.20
51313;BME280;37397;53.226;10.400;2022-07-24T06:10:52;101590.28;;;16.34;60.98
51313;BME280;37397;53.226;10.400;2022-07-24T06:13:19;101588.78;;;16.38;61.44
51313;BME280;37397;53.226;10.400;2022-07-24T06:15:45;101580.13;;;16.38;61.34
51313;BME280;37397;53.226;10.400;2022-07-24T06:18:12;101578.22;;;16.50;62.10
51313;BME280;37397;53.226;10.400;2022-07-24T06:20:38;101576.38;;;16.53;61.57
51313;BME280;37397;53.226;10.400;2022-07-24T06:23:05;101573.78;;;16.55;61.36
51313;BME280;37397;53.226;10.400;2022-07-24T06:25:31;101570.19;;;16.60;61.63
51313;BME280;37397;53.226;10.400;2022-07-24T06:27:58;101575.50;;;16.67;62.25
51313;BME280;37397;53.226;10.400;2022-07-24T06:30:26;101577.97;;;16.74;62.41
51313;BME280;37397;53.226;10.400;2022-07-24T06:32:55;101561.97;;;16.73;62.44
51313;BME280;37397;53.226;10.400;2022-07-24T06:35:22;101564.09;;;16.78;62.09
51313;BME280;37397;53.226;10.400;2022-07-24T06:37:50;101564.47;;;16.86;61.92
51313;BME280;37397;53.226;10.400;2022-07-24T06:40:17;101568.22;;;16.92;62.61
51313;BME280;37397;53.226;10.400;2022-07-24T06:42:45;101568.56;;;17.00;62.59
51313;BME280;37397;53.226;10.400;2022-07-24T06:45:12;101554.41;;;17.02;62.79
51313;BME280;37397;53.226;10.400;2022-07-24T06:47:40;101554.97;;;17.06;62.61
51313;BME280;37397;53.226;10.400;2022-07-24T06:50:08;101561.59;;;17.12;61.80
51313;BME280;37397;53.226;10.400;2022-07-24T06:52:34;101558.03;;;17.23;62.71
51313;BME280;37397;53.226;10.400;2022-07-24T06:55:01;101555.97;;;17.29;61.72
51313;BME280;37397;53.226;10.400;2022-07-24T06:57:27;101553.13;;;17.35;61.94
51313;BME280;37397;53.226;10.400;2022-07-24T06:59:54;101549.50;;;17.40;61.80
51313;BME280;37397;53.226;10.400;2022-07-24T07:02:21;101556.66;;;17.50;62.29
51313;BME280;37397;53.226;10.400;2022-07-24T07:04:48;101554.31;;;17.55;61.65
51313;BME280;37397;53.226;10.400;2022-07-24T07:07:16;101555.47;;;17.63;61.76
51313;BME280;37397;53.226;10.400;2022-07-24T07:09:43;101553.13;;;17.67;61.34
51313;BME280;37397;53.226;10.400;2022-07-24T07:12:10;101546.06;;;17.74;61.62
51313;BME280;37397;53.226;10.400;2022-07-24T07:14:37;101542.66;;;17.75;60.93
51313;BME280;37397;53.226;10.400;2022-07-24T07:17:03;101544.84;;;17.86;61.05
51313;BME280;37397;53.226;10.400;2022-07-24T07:19:30;101546.22;;;17.91;60.93
51313;BME280;37397;53.226;10.400;2022-07-24T07:21:56;101550.47;;;18.01;60.93
51313;BME280;37397;53.226;10.400;2022-07-24T07:24:24;101548.66;;;18.09;60.89
51313;BME280;37397;53.226;10.400;2022-07-24T07:26:51;101548.16;;;18.11;60.66
51313;BME280;37397;53.226;10.400;2022-07-24T07:29:17;101547.41;;;18.21;60.35
51313;BME280;37397;53.226;10.400;2022-07-24T07:31:44;101544.53;;;18.27;60.15
51313;BME280;37397;53.226;10.400;2022-07-24T07:34:10;101540.38;;;18.34;59.92
51313;BME280;37397;53.226;10.400;2022-07-24T07:36:37;101534.88;;;18.36;59.77
51313;BME280;37397;53.226;10.400;2022-07-24T07:39:04;101532.78;;;18.42;59.56
51313;BME280;37397;53.226;10.400;2022-07-24T07:41:31;101545.69;;;18.52;59.71
51313;BME280;37397;53.226;10.400;2022-07-24T07:43:58;101541.75;;;18.55;59.23
51313;BME280;37397;53.226;10.400;2022-07-24T07:46:25;101548.34;;;18.62;59.25
51313;BME280;37397;53.226;10.400;2022-07-24T07:48:53;101544.44;;;18.76;58.80
51313;BME280;37397;53.226;10.400;2022-07-24T07:51:20;101534.44;;;18.77;58.55
51313;BME280;37397;53.226;10.400;2022-07-24T07:53:50;101545.53;;;18.84;58.68
51313;BME280;37397;53.226;10.400;2022-07-24T07:56:16;101535.56;;;18.85;58.51
51313;BME280;37397;53.226;10.400;2022-07-24T07:58:43;101541.38;;;18.97;58.64
51313;BME280;37397;53.226;10.400;2022-07-24T08:01:10;101537.41;;;19.00;58.54
51313;BME280;37397;53.226;10.400;2022-07-24T08:03:36;101536.91;;;19.07;58.48
51313;BME280;37397;53.226;10.400;2022-07-24T08:06:03;101545.31;;;19.10;57.95
51313;BME280;37397;53.226;10.400;2022-07-24T08:08:39;101539.03;;;19.18;57.98
51313;BME280;37397;53.226;10.400;2022-07-24T08:11:05;101543.19;;;19.22;57.83
51313;BME280;37397;53.226;10.400;2022-07-24T08:13:32;101540.88;;;19.32;58.02
51313;BME280;37397;53.226;10.400;2022-07-24T08:15:59;101541.09;;;19.40;57.93
51313;BME280;37397;53.226;10.400;2022-07-24T08:18:26;101528.75;;;19.45;57.88
51313;BME280;37397;53.226;10.400;2022-07-24T08:20:52;101544.00;;;19.51;57.74
51313;BME280;37397;53.226;10.400;2022-07-24T08:23:19;101541.88;;;19.57;57.67
51313;BME280;37397;53.226;10.400;2022-07-24T08:25:46;101536.09;;;19.63;57.29
51313;BME280;37397;53.226;10.400;2022-07-24T08:28:12;101542.69;;;19.69;57.17
51313;BME280;37397;53.226;10.400;2022-07-24T08:30:39;101538.47;;;19.76;57.15
51313;BME280;37397;53.226;10.400;2022-07-24T08:33:05;101536.84;;;19.86;57.16
51313;BME280;37397;53.226;10.400;2022-07-24T08:35:32;101532.13;;;19.89;56.69
51313;BME280;37397;53.226;10.400;2022-07-24T08:37:59;101543.44;;;19.92;56.72
51313;BME280;37397;53.226;10.400;2022-07-24T08:40:32;101542.09;;;19.99;56.19
51313;BME280;37397;53.226;10.400;2022-07-24T08:43:00;101532.88;;;20.00;56.49
51313;BME280;37397;53.226;10.400;2022-07-24T08:45:27;101545.47;;;20.09;56.51
51313;BME280;37397;53.226;10.400;2022-07-24T08:47:55;101538.09;;;20.19;56.48
51313;BME280;37397;53.226;10.400;2022-07-24T08:50:22;101521.19;;;20.23;55.94
51313;BME280;37397;53.226;10.400;2022-07-24T08:52:49;101524.09;;;20.29;56.10
51313;BME280;37397;53.226;10.400;2022-07-24T08:55:16;101522.44;;;20.39;55.75
51313;BME280;37397;53.226;10.400;2022-07-24T08:57:43;101531.13;;;20.39;55.64
51313;BME280;37397;53.226;10.400;2022-07-24T09:00:10;101535.34;;;20.44;55.82
51313;BME280;37397;53.226;10.400;2022-07-24T09:02:39;101517.91;;;20.49;55.51
51313;BME280;37397;53.226;10.400;2022-07-24T09:05:06;101527.06;;;20.59;55.33
51313;BME280;37397;53.226;10.400;2022-07-24T09:07:33;101524.16;;;20.59;55.51
51313;BME280;37397;53.226;10.400;2022-07-24T09:10:03;101522.31;;;20.67;55.02
51313;BME280;37397;53.226;10.400;2022-07-24T09:12:32;101529.16;;;20.70;55.38
51313;BME280;37397;53.226;10.400;2022-07-24T09:15:00;101517.78;;;20.77;55.11
51313;BME280;37397;53.226;10.400;2022-07-24T09:17:27;101516.41;;;20.84;54.71
51313;BME280;37397;53.226;10.400;2022-07-24T09:19:59;101512.44;;;20.82;54.70
51313;BME280;37397;53.226;10.400;2022-07-24T09:25:07;101513.38;;;21.01;54.72
51313;BME280;37397;53.226;10.400;2022-07-24T09:27:36;101510.97;;;21.05;54.71
51313;BME280;37397;53.226;10.400;2022-07-24T09:30:05;101501.97;;;21.09;54.66
51313;BME280;37397;53.226;10.400;2022-07-24T09:32:38;101506.41;;;21.16;54.40
51313;BME280;37397;53.226;10.400;2022-07-24T09:35:05;101496.06;;;21.20;54.27
51313;BME280;37397;53.226;10.400;2022-07-24T09:37:32;101495.50;;;21.27;54.39
51313;BME280;37397;53.226;10.400;2022-07-24T09:40:06;101504.44;;;21.29;53.97
51313;BME280;37397;53.226;10.400;2022-07-24T09:42:33;101501.50;;;21.35;54.03
51313;BME280;37397;53.226;10.400;2022-07-24T09:45:06;101503.78;;;21.42;53.96
51313;BME280;37397;53.226;10.400;2022-07-24T09:47:35;101502.69;;;21.45;53.70
51313;BME280;37397;53.226;10.400;2022-07-24T09:50:16;101498.44;;;21.52;53.15
51313;BME280;37397;53.226;10.400;2022-07-24T09:52:43;101495.72;;;21.60;53.52
51313;BME280;37397;53.226;10.400;2022-07-24T09:55:22;101493.91;;;21.57;53.46
51313;BME280;37397;53.226;10.400;2022-07-24T09:57:49;101488.47;;;21.72;53.22
51313;BME280;37397;53.226;10.400;2022-07-24T10:00:16;101490.03;;;21.73;53.06
51313;BME280;37397;53.226;10.400;2022-07-24T10:02:44;101495.25;;;21.80;52.93
51313;BME280;37397;53.226;10.400;2022-07-24T10:05:12;101489.06;;;21.90;52.72
51313;BME280;37397;53.226;10.400;2022-07-24T10:07:47;101484.59;;;21.89;52.64
51313;BME280;37397;53.226;10.400;2022-07-24T10:10:15;101487.13;;;21.98;52.44
51313;BME280;37397;53.226;10.400;2022-07-24T10:12:44;101474.09;;;22.04;52.42
51313;BME280;37397;53.226;10.400;2022-07-24T10:15:11;101477.78;;;22.05;52.51
51313;BME280;37397;53.226;10.400;2022-07-24T10:20:43;101479.81;;;22.10;51.52
51313;BME280;37397;53.226;10.400;2022-07-24T10:23:25;101480.53;;;22.16;52.05
51313;BME280;37397;53.226;10.400;2022-07-24T10:26:00;101472.53;;;22.22;51.76
51313;BME280;37397;53.226;10.400;2022-07-24T10:28:39;101462.94;;;22.28;51.48
51313;BME280;37397;53.226;10.400;2022-07-24T10:31:09;101466.59;;;22.34;51.65
51313;BME280;37397;53.226;10.400;2022-07-24T10:33:37;101462.47;;;22.43;51.24
51313;BME280;37397;53.226;10.400;2022-07-24T10:36:13;101464.22;;;22.51;50.80
51313;BME280;37397;53.226;10.400;2022-07-24T10:38:55;101460.91;;;22.61;50.64
51313;BME280;37397;53.226;10.400;2022-07-24T10:41:24;101451.94;;;22.58;50.86
51313;BME280;37397;53.226;10.400;2022-07-24T10:44:15;101449.28;;;22.61;50.66
51313;BME280;37397;53.226;10.400;2022-07-24T10:46:56;101441.22;;;22.67;50.85
51313;BME280;37397;53.226;10.400;2022-07-24T10:49:55;101441.72;;;22.71;50.63
51313;BME280;37397;53.226;10.400;2022-07-24T10:52:29;101439.28;;;22.75;50.52
51313;BME280;37397;53.226;10.400;2022-07-24T10:55:25;101444.22;;;22.80;50.23
51313;BME280;37397;53.226;10.400;2022-07-24T10:58:13;101448.44;;;22.79;50.00
51313;BME280;37397;53.226;10.400;2022-07-24T11:00:50;101454.09;;;22.90;50.10
51313;BME280;37397;53.226;10.400;2022-07-24T11:03:25;101456.13;;;22.95;49.89
51313;BME280;37397;53.226;10.400;2022-07-24T11:06:02;101446.53;;;23.01;49.71
51313;BME280;37397;53.226;10.400;2022-07-24T11:08:32;101436.91;;;23.06;49.76
51313;BME280;37397;53.226;10.400;2022-07-24T11:11:12;101444.28;;;23.07;49.56
51313;BME280;37397;53.226;10.400;2022-07-24T11:13:41;101435.16;;;23.16;49.39
51313;BME280;37397;53.226;10.400;2022-07-24T11:21:32;101431.59;;;23.23;49.01
51313;BME280;37397;53.226;10.400;2022-07-24T11:26:59;101440.56;;;23.39;49.16
51313;BME280;37397;53.226;10.400;2022-07-24T11:29:31;101435.63;;;23.47;48.90
51313;BME280;37397;53.226;10.400;2022-07-24T11:32:09;101425.56;;;23.48;48.92
51313;BME280;37397;53.226;10.400;2022-07-24T11:34:49;101418.63;;;23.51;48.96
51313;BME280;37397;53.226;10.400;2022-07-24T11:37:17;101416.13;;;23.55;49.15
51313;BME280;37397;53.226;10.400;2022-07-24T11:39:44;101417.94;;;23.58;48.67
51313;BME280;37397;53.226;10.400;2022-07-24T11:42:14;101419.94;;;23.63;48.88
51313;BME280;37397;53.226;10.400;2022-07-24T11:44:49;101422.88;;;23.77;48.28
51313;BME280;37397;53.226;10.400;2022-07-24T11:47:20;101401.91;;;23.78;48.67
51313;BME280;37397;53.226;10.400;2022-07-24T11:49:53;101406.72;;;23.89;48.43
51313;BME280;37397;53.226;10.400;2022-07-24T11:52:25;101404.47;;;23.95;48.03
51313;BME280;37397;53.226;10.400;2022-07-24T11:54:55;101403.34;;;23.98;48.30
51313;BME280;37397;53.226;10.400;2022-07-24T11:57:33;101387.44;;;23.99;48.60
51313;BME280;37397;53.226;10.400;2022-07-24T12:00:23;101382.81;;;24.04;48.51
51313;BME280;37397;53.226;10.400;2022-07-24T12:02:58;101377.78;;;24.05;48.45
51313;BME280;37397;53.226;10.400;2022-07-24T12:05:30;101373.94;;;24.10;48.05
51313;BME280;37397;53.226;10.400;2022-07-24T12:07:59;101371.81;;;24.10;47.99
51313;BME280;37397;53.226;10.400;2022-07-24T12:10:27;101368.56;;;24.14;47.59
51313;BME280;37397;53.226;10.400;2022-07-24T12:12:54;101366.50;;;24.22;47.43
51313;BME280;37397;53.226;10.400;2022-07-24T12:15:23;101355.63;;;24.23;47.46
51313;BME280;37397;53.226;10.400;2022-07-24T12:18:00;101357.03;;;24.29;47.58
51313;BME280;37397;53.226;10.400;2022-07-24T12:20:35;101346.50;;;24.26;46.93
51313;BME280;37397;53.226;10.400;2022-07-24T12:23:05;101344.69;;;24.36;46.96
51313;BME280;37397;53.226;10.400;2022-07-24T12:25:32;101344.91;;;24.38;47.52
51313;BME280;37397;53.226;10.400;2022-07-24T12:28:17;101345.09;;;24.40;47.69
51313;BME280;37397;53.226;10.400;2022-07-24T12:30:47;101341.69;;;24.50;47.07
51313;BME280;37397;53.226;10.400;2022-07-24T12:38:38;101320.06;;;24.66;47.08
51313;BME280;37397;53.226;10.400;2022-07-24T12:41:08;101316.25;;;24.71;47.27
51313;BME280;37397;53.226;10.400;2022-07-24T12:43:58;101311.25;;;24.80;47.04
51313;BME280;37397;53.226;10.400;2022-07-24T12:46:37;101304.28;;;24.83;46.83
51313;BME280;37397;53.226;10.400;2022-07-24T12:54:18;101300.47;;;24.96;47.13
51313;BME280;37397;53.226;10.400;2022-07-24T12:56:47;101304.78;;;25.02;46.94
51313;BME280;37397;53.226;10.400;2022-07-24T12:59:28;101295.50;;;25.11;46.16
51313;BME280;37397;53.226;10.400;2022-07-24T13:01:57;101297.50;;;25.17;46.10
51313;BME280;37397;53.226;10.400;2022-07-24T13:04:25;101298.09;;;25.23;46.36
51313;BME280;37397;53.226;10.400;2022-07-24T13:06:56;101293.63;;;25.22;46.44
51313;BME280;37397;53.226;10.400;2022-07-24T13:09:24;101291.34;;;25.28;46.10
51313;BME280;37397;53.226;10.400;2022-07-24T13:11:53;101289.81;;;25.35;46.40
51313;BME280;37397;53.226;10.400;2022-07-24T13:14:21;101286.53;;;25.38;46.31